sensor_id;sensor_type;location;lat;lon;timestamp;P1;durP1;ratioP1;P2;durP2;ratioP2
4391;SDS011;2210;51.938;8.488;2023-08-06T00:00:44;2.70;;;1.93;;
4391;SDS011;2210;51.938;8.488;2023-08-06T00:04:44;3.30;;;2.03;;
4391;SDS011;2210;51.938;8.488;2023-08-06T00:08:48;2.70;;;2.50;;
4391;SDS011;2210;51.938;8.488;2023-08-06T00:12:48;3.00;;;2.20;;
4391;SDS011;2210;51.938;8.488;2023-08-06T00:16:57;2.90;;;2.37;;
4391;SDS011;2210;51.938;8.488;2023-08-06T00:21:01;2.30;;;2.10;;
4391;SDS011;2210;51.938;8.488;2023-08-06T00:29:27;2.13;;;1.93;;
4391;SDS011;2210;51.938;8.488;2023-08-06T00:33:37;3.47;;;2.40;;
4391;SDS011;2210;51.938;8.488;2023-08-06T00:37:37;2.47;;;2.13;;
4391;SDS011;2210;51.938;8.488;2023-08-06T00:41:40;2.00;;;1.80;;
4391;SDS011;2210;51.938;8.488;2023-08-06T00:45:41;3.03;;;1.93;;
4391;SDS011;2210;51.938;8.488;2023-08-06T00:49:45;2.10;;;1.90;;
4391;SDS011;2210;51.938;8.488;2023-08-06T00:53:46;2.50;;;2.30;;
4391;SDS011;2210;51.938;8.488;2023-08-06T00:57:50;2.37;;;2.17;;
4391;SDS011;2210;51.938;8.488;2023-08-06T01:01:58;2.47;;;2.27;;
4391;SDS011;2210;51.938;8.488;2023-08-06T01:06:04;1.90;;;1.80;;
4391;SDS011;2210;51.938;8.488;2023-08-06T01:19:16;4.50;;;2.03;;
4391;SDS011;2210;51.938;8.488;2023-08-06T01:23:30;2.13;;;1.93;;
4391;SDS011;2210;51.938;8.488;2023-08-06T01:27:44;3.97;;;1.77;;
4391;SDS011;2210;51.938;8.488;2023-08-06T01:31:50;2.57;;;1.90;;
4391;SDS011;2210;51.938;8.488;2023-08-06T01:35:52;1.67;;;1.57;;
4391;SDS011;2210;51.938;8.488;2023-08-06T01:39:54;3.10;;;2.30;;
4391;SDS011;2210;51.938;8.488;2023-08-06T01:43:57;4.50;;;2.10;;
4391;SDS011;2210;51.938;8.488;2023-08-06T01:48:00;2.03;;;1.83;;
4391;SDS011;2210;51.938;8.488;2023-08-06T01:52:00;3.70;;;2.70;;
4391;SDS011;2210;51.938;8.488;2023-08-06T01:56:01;1.80;;;1.70;;
4391;SDS011;2210;51.938;8.488;2023-08-06T02:00:01;1.73;;;1.63;;
4391;SDS011;2210;51.938;8.488;2023-08-06T02:04:06;1.97;;;1.87;;
4391;SDS011;2210;51.938;8.488;2023-08-06T02:08:06;3.43;;;2.27;;
4391;SDS011;2210;51.938;8.488;2023-08-06T02:12:15;3.33;;;1.80;;
4391;SDS011;2210;51.938;8.488;2023-08-06T02:16:16;2.23;;;1.70;;
4391;SDS011;2210;51.938;8.488;2023-08-06T02:20:19;2.30;;;2.10;;
4391;SDS011;2210;51.938;8.488;2023-08-06T02:24:19;2.20;;;1.80;;
4391;SDS011;2210;51.938;8.488;2023-08-06T02:28:20;2.00;;;1.90;;
4391;SDS011;2210;51.938;8.488;2023-08-06T02:32:23;3.10;;;2.22;;
4391;SDS011;2210;51.938;8.488;2023-08-06T02:36:23;3.13;;;1.80;;
4391;SDS011;2210;51.938;8.488;2023-08-06T02:40:24;1.57;;;1.47;;
4391;SDS011;2210;51.938;8.488;2023-08-06T02:44:27;3.30;;;2.00;;
4391;SDS011;2210;51.938;8.488;2023-08-06T02:48:28;2.20;;;2.00;;
4391;SDS011;2210;51.938;8.488;2023-08-06T02:52:31;3.20;;;2.03;;
4391;SDS011;2210;51.938;8.488;2023-08-06T02:56:34;3.87;;;1.83;;
4391;SDS011;2210;51.938;8.488;2023-08-06T03:00:38;2.10;;;1.60;;
4391;SDS011;2210;51.938;8.488;2023-08-06T03:04:41;2.65;;;1.90;;
4391;SDS011;2210;51.938;8.488;2023-08-06T03:08:41;2.80;;;1.90;;
4391;SDS011;2210;51.938;8.488;2023-08-06T03:12:41;1.77;;;1.67;;
4391;SDS011;2210;51.938;8.488;2023-08-06T03:16:42;2.00;;;1.90;;
4391;SDS011;2210;51.938;8.488;2023-08-06T03:20:42;3.65;;;1.95;;
4391;SDS011;2210;51.938;8.488;2023-08-06T03:24:50;1.80;;;1.70;;
4391;SDS011;2210;51.938;8.488;2023-08-06T03:28:51;2.23;;;2.10;;
4391;SDS011;2210;51.938;8.488;2023-08-06T03:32:51;1.95;;;1.85;;
4391;SDS011;2210;51.938;8.488;2023-08-06T03:36:54;2.43;;;2.23;;
4391;SDS011;2210;51.938;8.488;2023-08-06T03:40:55;6.37;;;2.27;;
4391;SDS011;2210;51.938;8.488;2023-08-06T03:44:55;1.97;;;1.87;;
4391;SDS011;2210;51.938;8.488;2023-08-06T03:49:02;2.00;;;1.80;;
4391;SDS011;2210;51.938;8.488;2023-08-06T03:53:02;2.47;;;1.90;;
4391;SDS011;2210;51.938;8.488;2023-08-06T03:57:02;2.43;;;1.70;;
4391;SDS011;2210;51.938;8.488;2023-08-06T04:01:06;4.40;;;2.20;;
4391;SDS011;2210;51.938;8.488;2023-08-06T04:05:06;3.13;;;1.80;;
4391;SDS011;2210;51.938;8.488;2023-08-06T04:09:07;5.47;;;2.37;;
4391;SDS011;2210;51.938;8.488;2023-08-06T04:13:10;2.50;;;2.20;;
4391;SDS011;2210;51.938;8.488;2023-08-06T04:17:10;1.90;;;1.80;;
4391;SDS011;2210;51.938;8.488;2023-08-06T04:21:10;2.70;;;2.10;;
4391;SDS011;2210;51.938;8.488;2023-08-06T04:25:11;2.27;;;2.07;;
4391;SDS011;2210;51.938;8.488;2023-08-06T04:29:11;4.00;;;2.63;;
4391;SDS011;2210;51.938;8.488;2023-08-06T04:33:11;5.33;;;2.07;;
4391;SDS011;2210;51.938;8.488;2023-08-06T04:37:15;2.17;;;1.97;;
4391;SDS011;2210;51.938;8.488;2023-08-06T04:41:18;2.13;;;2.00;;
4391;SDS011;2210;51.938;8.488;2023-08-06T04:45:18;2.13;;;1.93;;
4391;SDS011;2210;51.938;8.488;2023-08-06T04:49:20;3.20;;;2.40;;
4391;SDS011;2210;51.938;8.488;2023-08-06T04:53:21;2.47;;;2.27;;
4391;SDS011;2210;51.938;8.488;2023-08-06T04:57:21;2.30;;;2.10;;
4391;SDS011;2210;51.938;8.488;2023-08-06T05:01:21;2.80;;;2.27;;
4391;SDS011;2210;51.938;8.488;2023-08-06T05:05:21;4.07;;;2.23;;
4391;SDS011;2210;51.938;8.488;2023-08-06T05:09:22;2.23;;;2.03;;
4391;SDS011;2210;51.938;8.488;2023-08-06T05:13:22;3.10;;;2.80;;
4391;SDS011;2210;51.938;8.488;2023-08-06T05:17:22;2.93;;;2.43;;
4391;SDS011;2210;51.938;8.488;2023-08-06T05:21:26;2.70;;;2.50;;
4391;SDS011;2210;51.938;8.488;2023-08-06T05:25:26;5.83;;;2.57;;
4391;SDS011;2210;51.938;8.488;2023-08-06T05:29:27;6.80;;;3.43;;
4391;SDS011;2210;51.938;8.488;2023-08-06T05:33:27;3.35;;;2.30;;
4391;SDS011;2210;51.938;8.488;2023-08-06T05:37:27;2.70;;;2.23;;
4391;SDS011;2210;51.938;8.488;2023-08-06T05:41:27;3.03;;;2.73;;
4391;SDS011;2210;51.938;8.488;2023-08-06T05:45:31;2.58;;;2.17;;
4391;SDS011;2210;51.938;8.488;2023-08-06T05:49:34;2.67;;;2.30;;
4391;SDS011;2210;51.938;8.488;2023-08-06T05:53:34;2.30;;;2.17;;
4391;SDS011;2210;51.938;8.488;2023-08-06T05:57:34;2.60;;;2.37;;
4391;SDS011;2210;51.938;8.488;2023-08-06T06:01:35;4.22;;;2.75;;
4391;SDS011;2210;51.938;8.488;2023-08-06T06:05:37;2.50;;;2.30;;
4391;SDS011;2210;51.938;8.488;2023-08-06T06:09:38;3.90;;;2.67;;
4391;SDS011;2210;51.938;8.488;2023-08-06T06:13:39;2.80;;;2.60;;
4391;SDS011;2210;51.938;8.488;2023-08-06T06:17:39;2.67;;;2.47;;
4391;SDS011;2210;51.938;8.488;2023-08-06T06:21:45;2.57;;;2.37;;
4391;SDS011;2210;51.938;8.488;2023-08-06T06:25:49;2.60;;;2.40;;
4391;SDS011;2210;51.938;8.488;2023-08-06T06:29:52;2.47;;;2.03;;
4391;SDS011;2210;51.938;8.488;2023-08-06T06:33:54;2.83;;;2.40;;
4391;SDS011;2210;51.938;8.488;2023-08-06T06:37:57;2.40;;;2.20;;
4391;SDS011;2210;51.938;8.488;2023-08-06T06:42:07;2.93;;;2.60;;
4391;SDS011;2210;51.938;8.488;2023-08-06T06:46:22;2.90;;;2.70;;
4391;SDS011;2210;51.938;8.488;2023-08-06T06:50:26;3.57;;;3.27;;
4391;SDS011;2210;51.938;8.488;2023-08-06T06:54:26;3.17;;;2.87;;
4391;SDS011;2210;51.938;8.488;2023-08-06T06:58:30;3.63;;;2.93;;
4391;SDS011;2210;51.938;8.488;2023-08-06T07:02:30;4.87;;;3.00;;
4391;SDS011;2210;51.938;8.488;2023-08-06T07:06:33;2.88;;;2.67;;
4391;SDS011;2210;51.938;8.488;2023-08-06T07:10:37;3.20;;;2.77;;
4391;SDS011;2210;51.938;8.488;2023-08-06T07:14:41;3.03;;;2.60;;
4391;SDS011;2210;51.938;8.488;2023-08-06T07:18:51;3.67;;;3.13;;
4391;SDS011;2210;51.938;8.488;2023-08-06T07:22:52;2.43;;;2.23;;
4391;SDS011;2210;51.938;8.488;2023-08-06T07:26:53;4.73;;;2.47;;
4391;SDS011;2210;51.938;8.488;2023-08-06T07:30:56;3.80;;;2.77;;
4391;SDS011;2210;51.938;8.488;2023-08-06T07:34:56;2.83;;;2.33;;
4391;SDS011;2210;51.938;8.488;2023-08-06T07:39:00;3.17;;;2.97;;
4391;SDS011;2210;51.938;8.488;2023-08-06T07:43:00;2.43;;;2.23;;
4391;SDS011;2210;51.938;8.488;2023-08-06T07:47:06;3.63;;;2.63;;
4391;SDS011;2210;51.938;8.488;2023-08-06T07:51:07;2.90;;;2.70;;
4391;SDS011;2210;51.938;8.488;2023-08-06T07:55:07;2.50;;;2.30;;
4391;SDS011;2210;51.938;8.488;2023-08-06T07:59:07;3.40;;;2.17;;
4391;SDS011;2210;51.938;8.488;2023-08-06T08:03:12;2.40;;;2.20;;
4391;SDS011;2210;51.938;8.488;2023-08-06T08:07:16;2.63;;;2.43;;
4391;SDS011;2210;51.938;8.488;2023-08-06T08:11:17;2.83;;;2.63;;
4391;SDS011;2210;51.938;8.488;2023-08-06T08:15:18;2.47;;;2.20;;
4391;SDS011;2210;51.938;8.488;2023-08-06T08:19:18;2.60;;;2.40;;
4391;SDS011;2210;51.938;8.488;2023-08-06T08:23:19;2.97;;;2.67;;
4391;SDS011;2210;51.938;8.488;2023-08-06T08:27:19;2.40;;;1.92;;
4391;SDS011;2210;51.938;8.488;2023-08-06T08:31:20;2.90;;;2.37;;
4391;SDS011;2210;51.938;8.488;2023-08-06T08:35:20;2.77;;;2.20;;
4391;SDS011;2210;51.938;8.488;2023-08-06T08:39:20;5.13;;;1.63;;
4391;SDS011;2210;51.938;8.488;2023-08-06T08:43:21;1.53;;;1.43;;
4391;SDS011;2210;51.938;8.488;2023-08-06T08:47:28;2.13;;;1.50;;
4391;SDS011;2210;51.938;8.488;2023-08-06T08:51:30;1.80;;;1.50;;
4391;SDS011;2210;51.938;8.488;2023-08-06T08:55:32;1.10;;;1.00;;
4391;SDS011;2210;51.938;8.488;2023-08-06T08:59:33;2.17;;;1.70;;
4391;SDS011;2210;51.938;8.488;2023-08-06T09:03:34;1.47;;;1.30;;
4391;SDS011;2210;51.938;8.488;2023-08-06T09:12:12;1.40;;;1.30;;
4391;SDS011;2210;51.938;8.488;2023-08-06T09:16:15;2.00;;;1.50;;
4391;SDS011;2210;51.938;8.488;2023-08-06T09:20:15;3.03;;;1.70;;
4391;SDS011;2210;51.938;8.488;2023-08-06T09:24:16;1.80;;;1.40;;
4391;SDS011;2210;51.938;8.488;2023-08-06T09:28:16;1.60;;;1.50;;
4391;SDS011;2210;51.938;8.488;2023-08-06T09:32:16;2.90;;;1.83;;
4391;SDS011;2210;51.938;8.488;2023-08-06T09:36:17;1.70;;;1.57;;
4391;SDS011;2210;51.938;8.488;2023-08-06T09:40:33;2.43;;;1.70;;
4391;SDS011;2210;51.938;8.488;2023-08-06T09:44:33;2.03;;;1.77;;
4391;SDS011;2210;51.938;8.488;2023-08-06T09:48:34;2.53;;;1.60;;
4391;SDS011;2210;51.938;8.488;2023-08-06T09:52:47;2.33;;;2.13;;
4391;SDS011;2210;51.938;8.488;2023-08-06T09:56:58;1.50;;;1.40;;
4391;SDS011;2210;51.938;8.488;2023-08-06T10:00:59;3.73;;;1.57;;
4391;SDS011;2210;51.938;8.488;2023-08-06T10:05:01;2.30;;;1.60;;
4391;SDS011;2210;51.938;8.488;2023-08-06T10:09:02;1.30;;;1.20;;
4391;SDS011;2210;51.938;8.488;2023-08-06T10:13:04;1.70;;;1.60;;
4391;SDS011;2210;51.938;8.488;2023-08-06T10:17:10;2.60;;;1.20;;
4391;SDS011;2210;51.938;8.488;2023-08-06T10:21:11;1.63;;;1.10;;
4391;SDS011;2210;51.938;8.488;2023-08-06T10:25:15;2.07;;;1.47;;
4391;SDS011;2210;51.938;8.488;2023-08-06T10:33:50;1.17;;;1.07;;
4391;SDS011;2210;51.938;8.488;2023-08-06T10:37:54;4.20;;;1.50;;
4391;SDS011;2210;51.938;8.488;2023-08-06T10:42:06;0.90;;;0.90;;
4391;SDS011;2210;51.938;8.488;2023-08-06T10:46:38;3.03;;;1.20;;
4391;SDS011;2210;51.938;8.488;2023-08-06T10:50:38;1.50;;;1.10;;
4391;SDS011;2210;51.938;8.488;2023-08-06T10:54:38;1.50;;;1.40;;
4391;SDS011;2210;51.938;8.488;2023-08-06T10:58:39;1.70;;;1.57;;
4391;SDS011;2210;51.938;8.488;2023-08-06T11:02:41;1.53;;;1.20;;
4391;SDS011;2210;51.938;8.488;2023-08-06T11:06:42;1.23;;;1.13;;
4391;SDS011;2210;51.938;8.488;2023-08-06T11:10:45;1.53;;;1.20;;
4391;SDS011;2210;51.938;8.488;2023-08-06T11:14:49;1.20;;;1.10;;
4391;SDS011;2210;51.938;8.488;2023-08-06T11:18:50;1.93;;;1.17;;
4391;SDS011;2210;51.938;8.488;2023-08-06T11:22:56;1.50;;;1.30;;
4391;SDS011;2210;51.938;8.488;2023-08-06T11:26:56;1.33;;;1.23;;
4391;SDS011;2210;51.938;8.488;2023-08-06T11:30:57;2.43;;;1.23;;
4391;SDS011;2210;51.938;8.488;2023-08-06T11:35:09;2.63;;;1.20;;
4391;SDS011;2210;51.938;8.488;2023-08-06T11:39:12;1.60;;;1.23;;
4391;SDS011;2210;51.938;8.488;2023-08-06T11:43:18;2.70;;;1.40;;
4391;SDS011;2210;51.938;8.488;2023-08-06T11:47:25;1.70;;;1.60;;
4391;SDS011;2210;51.938;8.488;2023-08-06T11:51:25;2.23;;;1.13;;
4391;SDS011;2210;51.938;8.488;2023-08-06T11:55:27;3.17;;;1.37;;
4391;SDS011;2210;51.938;8.488;2023-08-06T11:59:31;1.30;;;1.20;;
4391;SDS011;2210;51.938;8.488;2023-08-06T12:03:31;1.40;;;1.30;;
4391;SDS011;2210;51.938;8.488;2023-08-06T12:07:32;1.57;;;1.47;;
4391;SDS011;2210;51.938;8.488;2023-08-06T12:11:37;1.17;;;1.07;;
4391;SDS011;2210;51.938;8.488;2023-08-06T12:15:37;4.50;;;1.60;;
4391;SDS011;2210;51.938;8.488;2023-08-06T12:19:41;1.83;;;1.33;;
4391;SDS011;2210;51.938;8.488;2023-08-06T12:23:41;1.33;;;1.20;;
4391;SDS011;2210;51.938;8.488;2023-08-06T12:27:42;2.30;;;1.37;;
4391;SDS011;2210;51.938;8.488;2023-08-06T12:31:43;1.47;;;1.37;;
4391;SDS011;2210;51.938;8.488;2023-08-06T12:35:56;1.60;;;1.23;;
4391;SDS011;2210;51.938;8.488;2023-08-06T12:39:57;1.40;;;1.30;;
4391;SDS011;2210;51.938;8.488;2023-08-06T12:43:58;1.80;;;1.50;;
4391;SDS011;2210;51.938;8.488;2023-08-06T12:48:04;2.50;;;1.50;;
4391;SDS011;2210;51.938;8.488;2023-08-06T12:52:04;1.40;;;1.30;;
4391;SDS011;2210;51.938;8.488;2023-08-06T12:56:15;1.40;;;1.20;;
4391;SDS011;2210;51.938;8.488;2023-08-06T13:00:18;3.60;;;1.67;;
4391;SDS011;2210;51.938;8.488;2023-08-06T13:04:19;1.63;;;1.50;;
4391;SDS011;2210;51.938;8.488;2023-08-06T13:08:19;1.77;;;1.20;;
4391;SDS011;2210;51.938;8.488;2023-08-06T13:12:27;3.00;;;1.70;;
4391;SDS011;2210;51.938;8.488;2023-08-06T13:16:27;11.37;;;2.17;;
4391;SDS011;2210;51.938;8.488;2023-08-06T13:20:30;5.40;;;2.13;;
4391;SDS011;2210;51.938;8.488;2023-08-06T13:24:30;2.83;;;1.87;;
4391;SDS011;2210;51.938;8.488;2023-08-06T13:28:34;3.40;;;2.00;;
4391;SDS011;2210;51.938;8.488;2023-08-06T13:32:34;4.57;;;2.10;;
4391;SDS011;2210;51.938;8.488;2023-08-06T13:36:36;2.33;;;1.77;;
4391;SDS011;2210;51.938;8.488;2023-08-06T13:40:37;2.10;;;1.90;;
4391;SDS011;2210;51.938;8.488;2023-08-06T13:44:43;2.50;;;2.00;;
4391;SDS011;2210;51.938;8.488;2023-08-06T13:48:44;1.83;;;1.70;;
4391;SDS011;2210;51.938;8.488;2023-08-06T13:52:45;4.27;;;1.97;;
4391;SDS011;2210;51.938;8.488;2023-08-06T13:56:45;3.73;;;1.90;;
4391;SDS011;2210;51.938;8.488;2023-08-06T14:00:45;1.98;;;1.52;;
4391;SDS011;2210;51.938;8.488;2023-08-06T14:04:46;1.50;;;1.40;;
4391;SDS011;2210;51.938;8.488;2023-08-06T14:08:49;1.83;;;1.70;;
4391;SDS011;2210;51.938;8.488;2023-08-06T14:12:50;1.60;;;1.27;;
4391;SDS011;2210;51.938;8.488;2023-08-06T14:16:53;1.40;;;1.30;;
4391;SDS011;2210;51.938;8.488;2023-08-06T14:20:54;1.53;;;1.27;;
4391;SDS011;2210;51.938;8.488;2023-08-06T14:24:54;1.67;;;1.40;;
4391;SDS011;2210;51.938;8.488;2023-08-06T14:28:56;1.67;;;1.33;;
4391;SDS011;2210;51.938;8.488;2023-08-06T14:32:56;1.83;;;1.47;;
4391;SDS011;2210;51.938;8.488;2023-08-06T14:36:57;1.50;;;1.40;;
4391;SDS011;2210;51.938;8.488;2023-08-06T14:40:59;1.43;;;1.33;;
4391;SDS011;2210;51.938;8.488;2023-08-06T14:44:59;1.63;;;1.50;;
4391;SDS011;2210;51.938;8.488;2023-08-06T14:49:08;1.08;;;1.02;;
4391;SDS011;2210;51.938;8.488;2023-08-06T14:53:11;1.80;;;1.10;;
4391;SDS011;2210;51.938;8.488;2023-08-06T14:57:13;1.10;;;1.00;;
4391;SDS011;2210;51.938;8.488;2023-08-06T15:01:23;5.37;;;1.60;;
4391;SDS011;2210;51.938;8.488;2023-08-06T15:05:24;2.30;;;1.00;;
4391;SDS011;2210;51.938;8.488;2023-08-06T15:09:28;2.70;;;1.23;;
4391;SDS011;2210;51.938;8.488;2023-08-06T15:13:28;1.43;;;1.20;;
4391;SDS011;2210;51.938;8.488;2023-08-06T15:17:29;2.10;;;1.40;;
4391;SDS011;2210;51.938;8.488;2023-08-06T15:21:33;1.90;;;1.57;;
4391;SDS011;2210;51.938;8.488;2023-08-06T15:25:33;1.67;;;1.13;;
4391;SDS011;2210;51.938;8.488;2023-08-06T15:29:39;3.43;;;1.20;;
4391;SDS011;2210;51.938;8.488;2023-08-06T15:33:43;2.50;;;1.57;;
4391;SDS011;2210;51.938;8.488;2023-08-06T15:37:43;1.30;;;1.20;;
4391;SDS011;2210;51.938;8.488;2023-08-06T15:41:46;2.53;;;1.20;;
4391;SDS011;2210;51.938;8.488;2023-08-06T15:45:56;4.20;;;1.20;;
4391;SDS011;2210;51.938;8.488;2023-08-06T15:49:56;1.90;;;1.67;;
4391;SDS011;2210;51.938;8.488;2023-08-06T15:53:57;2.53;;;2.30;;
4391;SDS011;2210;51.938;8.488;2023-08-06T15:57:57;4.03;;;1.90;;
4391;SDS011;2210;51.938;8.488;2023-08-06T16:02:00;5.45;;;2.15;;
4391;SDS011;2210;51.938;8.488;2023-08-06T16:06:06;6.43;;;1.97;;
4391;SDS011;2210;51.938;8.488;2023-08-06T16:10:07;2.30;;;1.73;;
4391;SDS011;2210;51.938;8.488;2023-08-06T16:14:07;5.30;;;2.97;;
4391;SDS011;2210;51.938;8.488;2023-08-06T16:18:08;3.45;;;1.60;;
4391;SDS011;2210;51.938;8.488;2023-08-06T16:22:08;2.33;;;1.87;;
4391;SDS011;2210;51.938;8.488;2023-08-06T16:26:21;1.60;;;1.43;;
4391;SDS011;2210;51.938;8.488;2023-08-06T16:30:21;1.93;;;1.70;;
4391;SDS011;2210;51.938;8.488;2023-08-06T16:34:24;1.50;;;1.40;;
4391;SDS011;2210;51.938;8.488;2023-08-06T16:38:25;2.73;;;1.60;;
4391;SDS011;2210;51.938;8.488;2023-08-06T16:42:25;4.00;;;1.20;;
4391;SDS011;2210;51.938;8.488;2023-08-06T16:46:25;1.87;;;1.67;;
4391;SDS011;2210;51.938;8.488;2023-08-06T16:50:26;1.85;;;1.60;;
4391;SDS011;2210;51.938;8.488;2023-08-06T16:54:26;3.45;;;1.98;;
4391;SDS011;2210;51.938;8.488;2023-08-06T16:58:26;3.63;;;1.80;;
4391;SDS011;2210;51.938;8.488;2023-08-06T17:02:26;2.20;;;2.10;;
4391;SDS011;2210;51.938;8.488;2023-08-06T17:06:27;3.07;;;1.70;;
4391;SDS011;2210;51.938;8.488;2023-08-06T17:10:30;3.00;;;2.70;;
4391;SDS011;2210;51.938;8.488;2023-08-06T17:14:30;6.83;;;3.50;;
4391;SDS011;2210;51.938;8.488;2023-08-06T17:18:30;7.90;;;4.10;;
4391;SDS011;2210;51.938;8.488;2023-08-06T17:22:32;6.60;;;3.70;;
4391;SDS011;2210;51.938;8.488;2023-08-06T17:26:32;3.77;;;2.50;;
4391;SDS011;2210;51.938;8.488;2023-08-06T17:30:36;2.80;;;2.20;;
4391;SDS011;2210;51.938;8.488;2023-08-06T17:34:42;1.63;;;1.50;;
4391;SDS011;2210;51.938;8.488;2023-08-06T17:38:43;2.43;;;1.80;;
4391;SDS011;2210;51.938;8.488;2023-08-06T17:42:43;1.63;;;1.47;;
4391;SDS011;2210;51.938;8.488;2023-08-06T17:46:46;1.73;;;1.63;;
4391;SDS011;2210;51.938;8.488;2023-08-06T17:50:46;3.40;;;1.93;;
4391;SDS011;2210;51.938;8.488;2023-08-06T17:55:02;3.30;;;2.13;;
4391;SDS011;2210;51.938;8.488;2023-08-06T17:59:04;1.40;;;1.30;;
4391;SDS011;2210;51.938;8.488;2023-08-06T18:03:04;2.00;;;1.80;;
4391;SDS011;2210;51.938;8.488;2023-08-06T18:07:19;1.70;;;1.60;;
4391;SDS011;2210;51.938;8.488;2023-08-06T18:11:23;2.83;;;1.80;;
4391;SDS011;2210;51.938;8.488;2023-08-06T18:15:23;3.13;;;2.00;;
4391;SDS011;2210;51.938;8.488;2023-08-06T18:19:23;6.03;;;2.10;;
4391;SDS011;2210;51.938;8.488;2023-08-06T18:23:23;2.65;;;1.60;;
4391;SDS011;2210;51.938;8.488;2023-08-06T18:27:24;3.20;;;1.83;;
4391;SDS011;2210;51.938;8.488;2023-08-06T18:31:24;3.10;;;1.80;;
4391;SDS011;2210;51.938;8.488;2023-08-06T18:35:25;3.13;;;1.90;;
4391;SDS011;2210;51.938;8.488;2023-08-06T18:39:26;1.50;;;1.40;;
4391;SDS011;2210;51.938;8.488;2023-08-06T18:43:26;2.00;;;1.50;;
4391;SDS011;2210;51.938;8.488;2023-08-06T18:47:29;2.13;;;1.20;;
4391;SDS011;2210;51.938;8.488;2023-08-06T18:51:39;2.57;;;1.30;;
4391;SDS011;2210;51.938;8.488;2023-08-06T18:55:47;1.57;;;1.47;;
4391;SDS011;2210;51.938;8.488;2023-08-06T18:59:49;2.43;;;1.40;;
4391;SDS011;2210;51.938;8.488;2023-08-06T19:03:49;1.50;;;1.30;;
4391;SDS011;2210;51.938;8.488;2023-08-06T19:07:49;1.75;;;1.65;;
4391;SDS011;2210;51.938;8.488;2023-08-06T19:11:51;1.70;;;1.37;;
4391;SDS011;2210;51.938;8.488;2023-08-06T19:15:54;1.60;;;1.50;;
4391;SDS011;2210;51.938;8.488;2023-08-06T19:19:54;2.67;;;1.50;;
4391;SDS011;2210;51.938;8.488;2023-08-06T19:23:55;2.47;;;1.67;;
4391;SDS011;2210;51.938;8.488;2023-08-06T19:27:57;1.70;;;1.60;;
4391;SDS011;2210;51.938;8.488;2023-08-06T19:31:57;1.83;;;1.33;;
4391;SDS011;2210;51.938;8.488;2023-08-06T19:35:58;1.70;;;1.60;;
4391;SDS011;2210;51.938;8.488;2023-08-06T19:39:58;2.50;;;1.37;;
4391;SDS011;2210;51.938;8.488;2023-08-06T19:44:01;4.30;;;1.77;;
4391;SDS011;2210;51.938;8.488;2023-08-06T19:48:01;1.57;;;1.47;;
4391;SDS011;2210;51.938;8.488;2023-08-06T19:52:05;1.50;;;1.40;;
4391;SDS011;2210;51.938;8.488;2023-08-06T19:56:06;2.30;;;1.70;;
4391;SDS011;2210;51.938;8.488;2023-08-06T20:00:06;2.17;;;1.97;;
4391;SDS011;2210;51.938;8.488;2023-08-06T20:04:07;2.30;;;1.53;;
4391;SDS011;2210;51.938;8.488;2023-08-06T20:08:07;2.60;;;2.07;;
4391;SDS011;2210;51.938;8.488;2023-08-06T20:12:10;2.60;;;2.40;;
4391;SDS011;2210;51.938;8.488;2023-08-06T20:16:11;3.50;;;3.10;;
4391;SDS011;2210;51.938;8.488;2023-08-06T20:20:12;3.10;;;2.40;;
4391;SDS011;2210;51.938;8.488;2023-08-06T20:24:15;2.60;;;2.40;;
4391;SDS011;2210;51.938;8.488;2023-08-06T20:28:15;2.60;;;2.40;;
4391;SDS011;2210;51.938;8.488;2023-08-06T20:32:19;5.03;;;2.93;;
4391;SDS011;2210;51.938;8.488;2023-08-06T20:36:19;3.83;;;2.80;;
4391;SDS011;2210;51.938;8.488;2023-08-06T20:40:22;3.15;;;2.85;;
4391;SDS011;2210;51.938;8.488;2023-08-06T20:44:23;4.03;;;2.70;;
4391;SDS011;2210;51.938;8.488;2023-08-06T20:48:23;3.37;;;3.00;;
4391;SDS011;2210;51.938;8.488;2023-08-06T20:52:24;3.90;;;2.00;;
4391;SDS011;2210;51.938;8.488;2023-08-06T20:56:25;1.93;;;1.83;;
4391;SDS011;2210;51.938;8.488;2023-08-06T21:00:25;3.00;;;2.30;;
4391;SDS011;2210;51.938;8.488;2023-08-06T21:04:25;2.10;;;1.90;;
4391;SDS011;2210;51.938;8.488;2023-08-06T21:08:26;4.10;;;2.13;;
4391;SDS011;2210;51.938;8.488;2023-08-06T21:12:26;4.10;;;2.00;;
4391;SDS011;2210;51.938;8.488;2023-08-06T21:16:26;3.50;;;1.60;;
4391;SDS011;2210;51.938;8.488;2023-08-06T21:20:30;7.53;;;2.10;;
4391;SDS011;2210;51.938;8.488;2023-08-06T21:24:30;4.87;;;1.60;;
4391;SDS011;2210;51.938;8.488;2023-08-06T21:28:31;1.50;;;1.40;;
4391;SDS011;2210;51.938;8.488;2023-08-06T21:32:32;2.40;;;1.30;;
4391;SDS011;2210;51.938;8.488;2023-08-06T21:36:36;1.88;;;1.33;;
4391;SDS011;2210;51.938;8.488;2023-08-06T21:40:45;1.60;;;1.20;;
4391;SDS011;2210;51.938;8.488;2023-08-06T21:44:46;1.73;;;1.33;;
4391;SDS011;2210;51.938;8.488;2023-08-06T21:48:47;4.63;;;1.20;;
4391;SDS011;2210;51.938;8.488;2023-08-06T21:52:58;5.73;;;1.20;;
4391;SDS011;2210;51.938;8.488;2023-08-06T21:56:58;4.90;;;1.23;;
4391;SDS011;2210;51.938;8.488;2023-08-06T22:01:05;4.23;;;1.27;;
4391;SDS011;2210;51.938;8.488;2023-08-06T22:05:07;5.80;;;1.10;;
4391;SDS011;2210;51.938;8.488;2023-08-06T22:09:07;3.53;;;1.03;;
4391;SDS011;2210;51.938;8.488;2023-08-06T22:13:08;2.13;;;1.30;;
4391;SDS011;2210;51.938;8.488;2023-08-06T22:17:08;3.83;;;1.47;;
4391;SDS011;2210;51.938;8.488;2023-08-06T22:21:08;1.27;;;1.00;;
4391;SDS011;2210;51.938;8.488;2023-08-06T22:25:11;6.63;;;1.10;;
4391;SDS011;2210;51.938;8.488;2023-08-06T22:29:12;2.20;;;1.10;;
4391;SDS011;2210;51.938;8.488;2023-08-06T22:33:12;3.60;;;1.20;;
4391;SDS011;2210;51.938;8.488;2023-08-06T22:37:12;3.80;;;0.97;;
4391;SDS011;2210;51.938;8.488;2023-08-06T22:41:13;1.13;;;0.83;;
4391;SDS011;2210;51.938;8.488;2023-08-06T22:45:16;0.97;;;0.87;;
4391;SDS011;2210;51.938;8.488;2023-08-06T22:49:16;1.50;;;0.97;;
4391;SDS011;2210;51.938;8.488;2023-08-06T22:53:17;2.70;;;1.03;;
4391;SDS011;2210;51.938;8.488;2023-08-06T22:57:18;2.93;;;1.00;;
4391;SDS011;2210;51.938;8.488;2023-08-06T23:01:18;2.93;;;1.20;;
4391;SDS011;2210;51.938;8.488;2023-08-06T23:05:22;2.33;;;0.80;;
4391;SDS011;2210;51.938;8.488;2023-08-06T23:09:22;2.70;;;1.03;;
4391;SDS011;2210;51.938;8.488;2023-08-06T23:13:22;5.50;;;1.13;;
4391;SDS011;2210;51.938;8.488;2023-08-06T23:17:23;2.93;;;0.90;;
4391;SDS011;2210;51.938;8.488;2023-08-06T23:21:23;2.07;;;1.10;;
4391;SDS011;2210;51.938;8.488;2023-08-06T23:25:23;2.10;;;0.87;;
4391;SDS011;2210;51.938;8.488;2023-08-06T23:29:24;2.17;;;1.07;;
4391;SDS011;2210;51.938;8.488;2023-08-06T23:33:30;2.33;;;1.00;;
4391;SDS011;2210;51.938;8.488;2023-08-06T23:37:30;3.80;;;1.20;;
4391;SDS011;2210;51.938;8.488;2023-08-06T23:41:36;3.20;;;0.90;;
4391;SDS011;2210;51.938;8.488;2023-08-06T23:45:36;1.20;;;0.80;;
4391;SDS011;2210;51.938;8.488;2023-08-06T23:49:36;1.87;;;1.20;;
4391;SDS011;2210;51.938;8.488;2023-08-06T23:53:43;0.90;;;0.70;;
4391;SDS011;2210;51.938;8.488;2023-08-06T23:57:46;3.33;;;0.93;;
